createdAt,value
2023-03-13T00:00:28.334Z,84.6
2023-03-13T00:06:12.273Z,84.2
2023-03-13T00:11:47.985Z,84.4
2023-03-13T00:17:23.127Z,84.6
2023-03-13T00:22:58.058Z,84.4
2023-03-13T00:28:33.147Z,84.2
2023-03-13T00:34:08.302Z,84.4
2023-03-13T00:39:43.621Z,84.1
2023-03-13T00:45:19.504Z,84.4
2023-03-13T00:50:54.605Z,83.9
2023-03-13T00:56:29.905Z,84
2023-03-13T01:02:14.324Z,84.5
2023-03-13T01:07:51.015Z,84.6
2023-03-13T01:13:26.011Z,84.7
2023-03-13T01:19:02.239Z,84.7
2023-03-13T01:24:36.996Z,84.7
2023-03-13T01:30:11.959Z,84.7
2023-03-13T01:35:47.751Z,84.8
2023-03-13T01:41:44.609Z,84.8
2023-03-13T01:47:19.649Z,84.7
2023-03-13T01:52:54.754Z,84.6
2023-03-13T01:58:30.122Z,84.6
2023-03-13T02:04:06.438Z,84.7
2023-03-13T02:09:41.943Z,84.6
2023-03-13T02:15:17.640Z,84.1
2023-03-13T02:20:52.619Z,83.8
2023-03-13T02:26:27.828Z,83.7
2023-03-13T02:32:02.695Z,83.5
2023-03-13T02:37:37.897Z,83.3
2023-03-13T02:43:13.211Z,83.3
2023-03-13T02:48:48.047Z,83.5
2023-03-13T02:54:23.014Z,83.5
2023-03-13T03:00:04.791Z,83.4
2023-03-13T03:05:39.971Z,83.4
2023-03-13T03:11:15.232Z,83.1
2023-03-13T03:16:51.974Z,83.2
2023-03-13T03:22:28.959Z,83.2
2023-03-13T03:28:03.962Z,83.1
2023-03-13T03:33:39.532Z,82.9
2023-03-13T03:39:14.655Z,83
2023-03-13T03:44:49.936Z,83.1
2023-03-13T03:50:26.551Z,83
2023-03-13T03:56:01.646Z,83
2023-03-13T04:01:38.447Z,83.4
2023-03-13T04:07:13.840Z,83.4
2023-03-13T04:12:49.353Z,83.2
2023-03-13T04:18:24.707Z,83.2
2023-03-13T04:23:59.924Z,83.4
2023-03-13T04:29:35.028Z,83.4
2023-03-13T04:35:10.347Z,83.3
2023-03-13T04:40:46.387Z,83.2
2023-03-13T04:46:35.135Z,83.4
2023-03-13T04:52:11.196Z,83
2023-03-13T04:57:46.551Z,83.1
2023-03-13T05:03:21.752Z,83.2
2023-03-13T05:08:56.824Z,83
2023-03-13T05:14:33.190Z,83.1
2023-03-13T05:20:08.219Z,83.2
2023-03-13T05:25:43.688Z,82.9
2023-03-13T05:31:19.141Z,82.6
2023-03-13T05:36:55.206Z,82.7
2023-03-13T05:42:31.416Z,82.6
2023-03-13T05:48:07.040Z,82.9
2023-03-13T05:53:42.527Z,82.9
2023-03-13T05:59:20.468Z,82.9
2023-03-13T06:04:56.349Z,83.8
2023-03-13T06:10:34.152Z,85.7
2023-03-13T06:16:10.273Z,88.3
2023-03-13T06:21:45.567Z,89.9
2023-03-13T06:27:20.785Z,89.3
2023-03-13T06:32:55.889Z,90.7
2023-03-13T06:38:32.915Z,90.4
2023-03-13T06:44:07.751Z,89.2
2023-03-13T06:49:43.042Z,89.4
2023-03-13T06:55:18.483Z,89.6
2023-03-13T07:00:54.364Z,89.3
2023-03-13T07:06:30.597Z,89
2023-03-13T07:12:06.023Z,88.7
2023-03-13T07:17:41.058Z,86.9
2023-03-13T07:23:19.952Z,88.6
2023-03-13T07:28:56.785Z,83.9
2023-03-13T07:34:33.501Z,87.9
2023-03-13T07:40:17.927Z,87.1
2023-03-13T07:45:55.536Z,89.4
2023-03-13T07:51:44.442Z,89.2
2023-03-13T07:57:20.095Z,90.3
2023-03-13T08:02:55.756Z,88.7
2023-03-13T08:08:31.455Z,88.6
2023-03-13T08:14:07.320Z,85
2023-03-13T08:20:04.166Z,85.5
2023-03-13T08:25:39.656Z,77.3
2023-03-13T08:31:20.546Z,79.4
2023-03-13T08:37:04.281Z,80
2023-03-13T08:42:39.656Z,79.8
2023-03-13T08:48:15.164Z,77.9
2023-03-13T08:53:50.765Z,82.2
2023-03-13T08:59:26.282Z,79.1
2023-03-13T09:05:01.578Z,82.5
2023-03-13T09:10:36.809Z,82.1
2023-03-13T09:16:13.730Z,82.9
2023-03-13T09:21:49.905Z,83.8
2023-03-13T09:27:25.268Z,84.8
2023-03-13T09:33:00.816Z,84.9
2023-03-13T09:38:37.430Z,70.3
2023-03-13T09:44:13.486Z,78.8
2023-03-13T09:49:48.569Z,82.1
2023-03-13T09:55:24.022Z,71.8
2023-03-13T10:01:09.217Z,79.9
2023-03-13T10:06:57.488Z,63.8
2023-03-13T10:12:33.799Z,78.1
2023-03-13T10:18:11.721Z,64
2023-03-13T10:23:48.165Z,70.3
2023-03-13T10:29:31.263Z,60.5
2023-03-13T10:35:06.993Z,61.1
2023-03-13T10:40:42.580Z,59.6
2023-03-13T10:46:18.170Z,55.7
2023-03-13T10:51:54.089Z,57.1
2023-03-13T10:57:29.908Z,58
2023-03-13T11:03:05.238Z,58.6
2023-03-13T11:08:42.727Z,63.9
2023-03-13T11:14:38.608Z,57.6
2023-03-13T11:20:14.229Z,55.9
2023-03-13T11:25:52.731Z,54.1
2023-03-13T11:31:34.694Z,50.4
2023-03-13T11:37:11.582Z,47.8
2023-03-13T11:42:47.509Z,47.3
2023-03-13T11:48:24.030Z,48.9
2023-03-13T11:54:05.124Z,47.7
2023-03-13T11:59:45.204Z,47.7
2023-03-13T12:05:21.971Z,50.5
2023-03-13T12:10:59.143Z,49.7
2023-03-13T12:16:34.503Z,46.9
2023-03-13T12:22:11.089Z,47.3
2023-03-13T12:27:52.424Z,48.8
2023-03-13T12:33:31.521Z,43.3
2023-03-13T12:39:08.061Z,45.7
2023-03-13T12:44:43.334Z,45.9
2023-03-13T12:50:19.165Z,43.7
2023-03-13T12:55:54.959Z,38.5
2023-03-13T13:01:30.444Z,33.3
2023-03-13T13:07:07.681Z,34.9
2023-03-13T13:12:44.006Z,25
2023-03-13T13:18:19.050Z,20.9
2023-03-13T13:23:54.747Z,23.5
2023-03-13T13:29:30.213Z,22.1
2023-03-13T13:35:05.685Z,22.1
2023-03-13T13:40:41.382Z,20.5
2023-03-13T13:46:18.860Z,19.6
2023-03-13T13:51:55.494Z,16.6
2023-03-13T13:57:31.055Z,18.2
2023-03-13T14:03:06.636Z,14.8
2023-03-13T14:08:42.514Z,16.3
2023-03-13T14:14:17.954Z,19.7
2023-03-13T14:19:54.595Z,23.4
2023-03-13T14:25:29.849Z,24.8
2023-03-13T14:31:05.946Z,25.4
2023-03-13T14:36:41.524Z,20.6
2023-03-13T14:42:19.021Z,20.7
2023-03-13T14:48:03.976Z,30.1
2023-03-13T14:53:39.459Z,24
2023-03-13T14:59:14.946Z,27.5
2023-03-13T15:04:50.734Z,21
2023-03-13T15:10:26.168Z,21.1
2023-03-13T15:16:02.011Z,25.9
2023-03-13T15:21:39.123Z,27.4
2023-03-13T15:27:23.236Z,26.9
2023-03-13T15:32:58.596Z,32.1
2023-03-13T15:38:35.575Z,30.3
2023-03-13T15:44:11.239Z,32.1
2023-03-13T15:49:46.256Z,36.2
2023-03-13T15:55:21.999Z,38.7
2023-03-13T16:00:57.404Z,40.9
2023-03-13T16:06:34.067Z,46.3
2023-03-13T16:12:10.317Z,57.6
2023-03-13T16:17:45.185Z,60.7
2023-03-13T16:23:20.067Z,57.3
2023-03-13T16:29:16.433Z,59.7
2023-03-13T16:36:21.592Z,56.2
2023-03-13T16:41:57.236Z,59.4
2023-03-13T16:47:38.188Z,59.2
2023-03-13T16:53:13.601Z,58.1
2023-03-13T16:58:49.115Z,58.3
2023-03-13T17:04:27.342Z,58.8
2023-03-13T17:10:05.209Z,58.1
2023-03-13T17:15:41.182Z,56.2
2023-03-13T17:21:21.685Z,57.7
2023-03-13T17:27:07.392Z,59.5
2023-03-13T17:32:51.947Z,62.7
2023-03-13T17:38:37.846Z,63.4
2023-03-13T17:44:21.676Z,65.5
2023-03-13T17:50:00.899Z,68.2
2023-03-13T17:56:09.694Z,69
2023-03-13T18:03:24.339Z,68.7
2023-03-13T18:09:07.569Z,65.7
2023-03-13T18:14:44.178Z,62.7
2023-03-13T18:20:19.325Z,62.8
2023-03-13T18:25:54.629Z,63.1
2023-03-13T18:31:49.506Z,64.2
2023-03-13T18:37:25.716Z,64.7
2023-03-13T18:43:01.493Z,65.6
2023-03-13T18:48:36.490Z,66.7
2023-03-13T18:54:12.390Z,67.8
2023-03-13T18:59:48.266Z,69.2
2023-03-13T19:05:41.650Z,71.4
2023-03-13T19:11:19.741Z,72.4
2023-03-13T19:17:02.129Z,71.1
2023-03-13T19:23:21.763Z,67.6
2023-03-13T19:28:59.656Z,66.6
2023-03-13T19:34:43.786Z,66.7
2023-03-13T19:40:24.941Z,67.3
2023-03-13T19:46:00.856Z,67.8
2023-03-13T19:51:36.638Z,67.9
2023-03-13T19:57:12.015Z,68.4
2023-03-13T20:02:49.761Z,68.2
2023-03-13T20:08:25.767Z,68
2023-03-13T20:14:08.926Z,68.2
2023-03-13T20:19:44.221Z,68.1
2023-03-13T20:25:33.121Z,68.1
2023-03-13T20:32:08.477Z,68.4
2023-03-13T20:37:50.991Z,68.5
2023-03-13T20:43:44.629Z,69.1
2023-03-13T20:49:43.073Z,68.8
2023-03-13T20:55:21.884Z,68.9
2023-03-13T21:01:21.723Z,69.2
2023-03-13T21:07:03.528Z,69.2
2023-03-13T21:12:59.828Z,69.4
2023-03-13T21:18:41.146Z,69.6
2023-03-13T21:24:16.422Z,69.9
2023-03-13T21:29:51.764Z,69.8
2023-03-13T21:35:32.923Z,69.6
2023-03-13T21:41:12.933Z,69.8
2023-03-13T21:46:52.521Z,69.8
2023-03-13T21:53:12.438Z,70.1
2023-03-13T21:58:47.482Z,70.3
2023-03-13T22:04:32.887Z,70.1
2023-03-13T22:10:17.969Z,69.4
2023-03-13T22:15:53.964Z,69.4
2023-03-13T22:21:30.185Z,69.6
2023-03-13T22:27:34.016Z,69.9
2023-03-13T22:33:10.176Z,70.1
2023-03-13T22:38:56.756Z,70.3
2023-03-13T22:44:32.469Z,70.3
2023-03-13T22:50:08.829Z,70.1
2023-03-13T22:56:21.142Z,69.8
2023-03-13T23:01:54.219Z,69.4
2023-03-13T23:09:09.449Z,69.6
2023-03-13T23:14:48.965Z,70
2023-03-13T23:20:49.648Z,69.1
2023-03-13T23:26:24.590Z,69.8
2023-03-13T23:32:07.157Z,69.5
2023-03-13T23:37:45.907Z,68.7
2023-03-13T23:43:31.456Z,69.2
2023-03-13T23:49:11.126Z,68.9
2023-03-13T23:55:37.605Z,68.9
